createdAt,value
2023-03-17T00:03:59.709Z,1.8
2023-03-17T00:19:34.399Z,2.3
2023-03-17T00:35:08.764Z,1.9
2023-03-17T00:50:43.118Z,1.8
2023-03-17T01:06:17.521Z,1.9
2023-03-17T01:21:52.712Z,1.9
2023-03-17T01:37:27.061Z,2.9
2023-03-17T01:53:01.559Z,1.9
2023-03-17T02:08:35.918Z,1.8
2023-03-17T02:24:10.352Z,1.8
2023-03-17T02:39:44.716Z,1.8
2023-03-17T02:55:19.095Z,2.1
2023-03-17T03:10:53.797Z,1.8
2023-03-17T03:26:28.205Z,1.4
2023-03-17T03:42:02.580Z,1.6
2023-03-17T03:57:36.964Z,1.5
2023-03-17T04:13:11.352Z,2.4
2023-03-17T04:28:45.729Z,1.7
2023-03-17T04:44:20.082Z,1.5
2023-03-17T04:59:54.454Z,1.3
2023-03-17T05:15:28.865Z,1.4
2023-03-17T05:31:03.277Z,1.4
2023-03-17T05:46:38.119Z,2.6
2023-03-17T06:02:12.524Z,1.8
2023-03-17T06:17:47.055Z,2.4
2023-03-17T06:33:21.585Z,1.3
2023-03-17T06:48:55.943Z,1.9
2023-03-17T07:04:30.342Z,2.5
2023-03-17T07:20:04.966Z,2.6
2023-03-17T07:35:39.485Z,2.2
2023-03-17T07:51:14.187Z,1.9
2023-03-17T08:06:48.656Z,1.9
2023-03-17T08:22:23.087Z,2
2023-03-17T08:37:57.587Z,1.8
2023-03-17T08:53:32.045Z,2.2
2023-03-17T09:09:06.508Z,1.6
2023-03-17T09:24:40.989Z,1.8
2023-03-17T09:40:15.480Z,1.6
2023-03-17T09:55:50.014Z,1.9
2023-03-17T10:11:24.498Z,1.8
2023-03-17T10:26:58.964Z,1.7
2023-03-17T10:42:33.537Z,1.4
2023-03-17T10:58:08.188Z,1.4
2023-03-17T11:13:42.779Z,1.4
2023-03-17T11:29:16.743Z,1.7
2023-03-17T11:44:51.264Z,1.4
2023-03-17T12:00:25.869Z,1.2
2023-03-17T12:16:00.619Z,1.2
2023-03-17T12:31:35.478Z,1.3
2023-03-17T12:47:10.513Z,1
2023-03-17T13:02:45.159Z,0.8
2023-03-17T13:18:19.751Z,0.7
2023-03-17T13:33:54.343Z,2.9
2023-03-17T13:49:28.975Z,0.7
2023-03-17T14:05:03.572Z,1.2
2023-03-17T14:20:38.173Z,0.7
2023-03-17T14:36:14.278Z,0.8
2023-03-17T14:51:49.298Z,0.7
2023-03-17T15:07:23.911Z,1.3
2023-03-17T15:22:58.472Z,1.3
2023-03-17T15:38:33.096Z,0.9
2023-03-17T15:54:07.649Z,1
2023-03-17T16:09:42.213Z,2.4
2023-03-17T16:25:16.749Z,1.2
2023-03-17T16:40:51.353Z,1.7
2023-03-17T16:56:26.038Z,1.3
2023-03-17T17:12:00.942Z,1.2
2023-03-17T17:27:35.565Z,1.9
2023-03-17T17:43:10.224Z,1.5
2023-03-17T17:58:44.983Z,1.8
2023-03-17T18:14:19.481Z,2
2023-03-17T18:29:54.092Z,2.6
2023-03-17T18:45:28.576Z,2.6
2023-03-17T19:01:03.182Z,2.6
2023-03-17T19:16:38.135Z,4.6
2023-03-17T19:32:14.450Z,2.9
2023-03-17T19:47:49.006Z,4.2
2023-03-17T20:03:26.035Z,5.2
2023-03-17T20:19:00.662Z,2.8
2023-03-17T20:34:35.180Z,4.7
2023-03-17T20:50:09.674Z,4.1
2023-03-17T21:05:44.115Z,2.9
2023-03-17T21:21:18.563Z,2.7
2023-03-17T21:36:53.038Z,4.1
2023-03-17T21:52:27.556Z,3.2
2023-03-17T22:08:01.994Z,3.8
2023-03-17T22:23:36.438Z,3.6
2023-03-17T22:39:10.934Z,3.7
2023-03-17T22:54:45.406Z,3.7
2023-03-17T23:10:19.826Z,4
2023-03-17T23:25:54.316Z,3.1
2023-03-17T23:41:28.780Z,3.3
2023-03-17T23:57:03.240Z,3.7
